sensor_id;sensor_type;location;lat;lon;timestamp;temperature;humidity
71304;DHT22;59091;47.446;19.148;2023-02-15T00:01:42;2.10;72.71
71304;DHT22;59091;47.446;19.148;2023-02-15T00:04:09;2.10;72.81
71304;DHT22;59091;47.446;19.148;2023-02-15T00:06:35;2.09;72.81
71304;DHT22;59091;47.446;19.148;2023-02-15T00:09:01;2.09;72.60
71304;DHT22;59091;47.446;19.148;2023-02-15T00:11:27;2.02;72.68
71304;DHT22;59091;47.446;19.148;2023-02-15T00:14:28;1.83;73.06
71304;DHT22;59091;47.446;19.148;2023-02-15T00:16:54;1.90;72.98
71304;DHT22;59091;47.446;19.148;2023-02-15T00:19:21;1.95;72.83
71304;DHT22;59091;47.446;19.148;2023-02-15T00:21:47;1.93;73.12
71304;DHT22;59091;47.446;19.148;2023-02-15T00:24:14;1.96;73.20
71304;DHT22;59091;47.446;19.148;2023-02-15T00:26:41;1.93;73.07
71304;DHT22;59091;47.446;19.148;2023-02-15T00:29:07;1.92;73.10
71304;DHT22;59091;47.446;19.148;2023-02-15T00:31:34;1.93;73.01
71304;DHT22;59091;47.446;19.148;2023-02-15T00:34:07;1.90;72.70
71304;DHT22;59091;47.446;19.148;2023-02-15T00:36:36;1.90;72.89
71304;DHT22;59091;47.446;19.148;2023-02-15T00:39:02;1.89;73.04
71304;DHT22;59091;47.446;19.148;2023-02-15T00:41:30;1.87;73.01
71304;DHT22;59091;47.446;19.148;2023-02-15T00:43:55;1.86;72.99
71304;DHT22;59091;47.446;19.148;2023-02-15T00:46:21;1.85;73.05
71304;DHT22;59091;47.446;19.148;2023-02-15T00:48:46;1.83;72.92
71304;DHT22;59091;47.446;19.148;2023-02-15T00:51:12;1.82;72.90
71304;DHT22;59091;47.446;19.148;2023-02-15T00:53:37;1.80;73.08
71304;DHT22;59091;47.446;19.148;2023-02-15T00:56:02;1.77;73.36
71304;DHT22;59091;47.446;19.148;2023-02-15T00:58:28;1.80;73.16
71304;DHT22;59091;47.446;19.148;2023-02-15T01:00:53;1.77;73.16
71304;DHT22;59091;47.446;19.148;2023-02-15T01:03:20;1.75;73.35
71304;DHT22;59091;47.446;19.148;2023-02-15T01:05:47;1.79;73.24
71304;DHT22;59091;47.446;19.148;2023-02-15T01:08:13;1.75;73.08
71304;DHT22;59091;47.446;19.148;2023-02-15T01:10:38;1.73;73.13
71304;DHT22;59091;47.446;19.148;2023-02-15T01:13:06;1.76;73.13
71304;DHT22;59091;47.446;19.148;2023-02-15T01:15:34;1.70;73.05
71304;DHT22;59091;47.446;19.148;2023-02-15T01:18:00;1.69;73.01
71304;DHT22;59091;47.446;19.148;2023-02-15T01:20:27;1.69;73.01
71304;DHT22;59091;47.446;19.148;2023-02-15T01:22:54;1.66;73.07
71304;DHT22;59091;47.446;19.148;2023-02-15T01:25:21;1.63;73.10
71304;DHT22;59091;47.446;19.148;2023-02-15T01:27:47;1.63;73.04
71304;DHT22;59091;47.446;19.148;2023-02-15T01:30:14;1.59;72.92
71304;DHT22;59091;47.446;19.148;2023-02-15T01:32:40;1.60;72.79
71304;DHT22;59091;47.446;19.148;2023-02-15T01:35:07;1.59;72.90
71304;DHT22;59091;47.446;19.148;2023-02-15T01:37:33;1.58;73.01
71304;DHT22;59091;47.446;19.148;2023-02-15T01:39:59;1.58;73.19
71304;DHT22;59091;47.446;19.148;2023-02-15T01:42:28;1.55;73.54
71304;DHT22;59091;47.446;19.148;2023-02-15T01:44:59;1.52;73.76
71304;DHT22;59091;47.446;19.148;2023-02-15T01:47:36;1.56;73.66
71304;DHT22;59091;47.446;19.148;2023-02-15T01:50:28;1.49;73.81
71304;DHT22;59091;47.446;19.148;2023-02-15T01:55:44;1.51;73.98
71304;DHT22;59091;47.446;19.148;2023-02-15T01:58:12;1.51;73.95
71304;DHT22;59091;47.446;19.148;2023-02-15T02:00:38;1.52;73.77
71304;DHT22;59091;47.446;19.148;2023-02-15T02:03:03;1.52;73.57
71304;DHT22;59091;47.446;19.148;2023-02-15T02:05:29;1.51;73.43
71304;DHT22;59091;47.446;19.148;2023-02-15T02:07:58;1.51;73.37
71304;DHT22;59091;47.446;19.148;2023-02-15T02:10:24;1.52;74.22
71304;DHT22;59091;47.446;19.148;2023-02-15T02:12:57;1.44;74.63
71304;DHT22;59091;47.446;19.148;2023-02-15T02:15:42;1.42;74.23
71304;DHT22;59091;47.446;19.148;2023-02-15T02:24:03;1.38;73.44
71304;DHT22;59091;47.446;19.148;2023-02-15T02:37:30;1.21;73.57
71304;DHT22;59091;47.446;19.148;2023-02-15T02:40:03;1.27;73.51
71304;DHT22;59091;47.446;19.148;2023-02-15T02:42:35;1.20;73.60
71304;DHT22;59091;47.446;19.148;2023-02-15T02:45:09;1.24;73.82
71304;DHT22;59091;47.446;19.148;2023-02-15T02:48:02;1.21;73.63
71304;DHT22;59091;47.446;19.148;2023-02-15T02:50:30;1.21;73.67
71304;DHT22;59091;47.446;19.148;2023-02-15T02:52:58;1.23;73.73
71304;DHT22;59091;47.446;19.148;2023-02-15T02:58:05;1.15;73.86
71304;DHT22;59091;47.446;19.148;2023-02-15T03:00:40;1.20;74.05
71304;DHT22;59091;47.446;19.148;2023-02-15T03:03:24;1.21;73.65
71304;DHT22;59091;47.446;19.148;2023-02-15T03:05:54;1.20;73.91
71304;DHT22;59091;47.446;19.148;2023-02-15T03:08:22;1.25;74.26
71304;DHT22;59091;47.446;19.148;2023-02-15T03:10:53;1.24;74.83
71304;DHT22;59091;47.446;19.148;2023-02-15T03:13:19;1.21;75.54
71304;DHT22;59091;47.446;19.148;2023-02-15T03:15:46;1.23;75.43
71304;DHT22;59091;47.446;19.148;2023-02-15T03:18:36;1.21;74.97
71304;DHT22;59091;47.446;19.148;2023-02-15T03:21:04;1.20;74.60
71304;DHT22;59091;47.446;19.148;2023-02-15T03:23:32;1.24;74.27
71304;DHT22;59091;47.446;19.148;2023-02-15T03:26:07;1.23;73.82
71304;DHT22;59091;47.446;19.148;2023-02-15T03:28:36;1.21;73.81
71304;DHT22;59091;47.446;19.148;2023-02-15T03:31:05;1.20;73.64
71304;DHT22;59091;47.446;19.148;2023-02-15T03:33:32;1.18;73.66
71304;DHT22;59091;47.446;19.148;2023-02-15T03:38:47;1.15;73.72
71304;DHT22;59091;47.446;19.148;2023-02-15T03:41:16;1.15;73.79
71304;DHT22;59091;47.446;19.148;2023-02-15T03:43:49;1.11;73.66
71304;DHT22;59091;47.446;19.148;2023-02-15T03:46:32;1.05;73.39
71304;DHT22;59091;47.446;19.148;2023-02-15T03:49:53;1.05;73.22
71304;DHT22;59091;47.446;19.148;2023-02-15T03:51:55;1.08;73.36
71304;DHT22;59091;47.446;19.148;2023-02-15T03:54:28;1.05;73.24
71304;DHT22;59091;47.446;19.148;2023-02-15T04:00:05;1.00;73.81
71304;DHT22;59091;47.446;19.148;2023-02-15T04:05:41;0.97;73.74
71304;DHT22;59091;47.446;19.148;2023-02-15T04:08:08;0.95;73.61
71304;DHT22;59091;47.446;19.148;2023-02-15T04:10:33;0.93;73.45
71304;DHT22;59091;47.446;19.148;2023-02-15T04:13:18;0.93;73.39
71304;DHT22;59091;47.446;19.148;2023-02-15T04:15:43;0.93;73.31
71304;DHT22;59091;47.446;19.148;2023-02-15T04:18:27;0.91;73.40
71304;DHT22;59091;47.446;19.148;2023-02-15T04:21:11;0.87;73.31
71304;DHT22;59091;47.446;19.148;2023-02-15T04:23:55;0.67;73.48
71304;DHT22;59091;47.446;19.148;2023-02-15T04:26:39;0.80;73.45
71304;DHT22;59091;47.446;19.148;2023-02-15T04:29:04;0.83;73.40
71304;DHT22;59091;47.446;19.148;2023-02-15T04:31:30;0.83;73.40
71304;DHT22;59091;47.446;19.148;2023-02-15T04:33:55;0.79;73.35
71304;DHT22;59091;47.446;19.148;2023-02-15T04:36:20;0.74;73.49
71304;DHT22;59091;47.446;19.148;2023-02-15T04:38:46;0.80;73.51
71304;DHT22;59091;47.446;19.148;2023-02-15T04:41:11;0.76;73.60
71304;DHT22;59091;47.446;19.148;2023-02-15T04:43:38;0.76;73.63
71304;DHT22;59091;47.446;19.148;2023-02-15T04:46:04;0.73;73.65
71304;DHT22;59091;47.446;19.148;2023-02-15T04:48:29;0.74;73.94
71304;DHT22;59091;47.446;19.148;2023-02-15T04:50:55;0.77;73.94
71304;DHT22;59091;47.446;19.148;2023-02-15T04:53:20;0.72;74.15
71304;DHT22;59091;47.446;19.148;2023-02-15T04:55:46;0.73;74.15
71304;DHT22;59091;47.446;19.148;2023-02-15T04:58:11;0.73;73.89
71304;DHT22;59091;47.446;19.148;2023-02-15T05:00:36;0.76;73.80
71304;DHT22;59091;47.446;19.148;2023-02-15T05:03:02;0.76;73.89
71304;DHT22;59091;47.446;19.148;2023-02-15T05:05:27;0.74;73.78
71304;DHT22;59091;47.446;19.148;2023-02-15T05:07:53;0.72;73.72
71304;DHT22;59091;47.446;19.148;2023-02-15T05:10:19;0.72;73.75
71304;DHT22;59091;47.446;19.148;2023-02-15T05:12:44;0.72;73.77
71304;DHT22;59091;47.446;19.148;2023-02-15T05:15:10;0.73;73.62
71304;DHT22;59091;47.446;19.148;2023-02-15T05:17:35;0.72;73.54
71304;DHT22;59091;47.446;19.148;2023-02-15T05:20:01;0.69;73.60
71304;DHT22;59091;47.446;19.148;2023-02-15T05:22:26;0.67;73.80
71304;DHT22;59091;47.446;19.148;2023-02-15T05:24:52;0.76;78.11
71304;DHT22;59091;47.446;19.148;2023-02-15T05:27:35;0.69;77.63
71304;DHT22;59091;47.446;19.148;2023-02-15T05:30:20;0.73;74.95
71304;DHT22;59091;47.446;19.148;2023-02-15T05:32:45;0.70;74.00
71304;DHT22;59091;47.446;19.148;2023-02-15T05:35:14;0.69;73.72
71304;DHT22;59091;47.446;19.148;2023-02-15T05:37:40;0.70;75.65
71304;DHT22;59091;47.446;19.148;2023-02-15T05:40:06;0.94;80.89
71304;DHT22;59091;47.446;19.148;2023-02-15T05:42:32;0.90;77.55
71304;DHT22;59091;47.446;19.148;2023-02-15T05:44:57;0.91;75.23
71304;DHT22;59091;47.446;19.148;2023-02-15T05:47:23;0.83;74.09
71304;DHT22;59091;47.446;19.148;2023-02-15T05:49:48;0.80;73.76
71304;DHT22;59091;47.446;19.148;2023-02-15T05:52:14;0.74;73.62
71304;DHT22;59091;47.446;19.148;2023-02-15T05:54:39;0.70;74.16
71304;DHT22;59091;47.446;19.148;2023-02-15T05:57:05;0.97;80.85
71304;DHT22;59091;47.446;19.148;2023-02-15T05:59:30;1.25;83.50
71304;DHT22;59091;47.446;19.148;2023-02-15T06:01:56;1.23;80.42
71304;DHT22;59091;47.446;19.148;2023-02-15T06:04:21;1.36;82.10
71304;DHT22;59091;47.446;19.148;2023-02-15T06:06:46;1.52;81.99
71304;DHT22;59091;47.446;19.148;2023-02-15T06:09:12;1.45;78.99
71304;DHT22;59091;47.446;19.148;2023-02-15T06:11:38;1.36;75.87
71304;DHT22;59091;47.446;19.148;2023-02-15T06:14:03;1.31;76.18
71304;DHT22;59091;47.446;19.148;2023-02-15T06:16:29;1.28;75.08
71304;DHT22;59091;47.446;19.148;2023-02-15T06:18:54;1.35;77.50
71304;DHT22;59091;47.446;19.148;2023-02-15T06:21:20;1.34;75.77
71304;DHT22;59091;47.446;19.148;2023-02-15T06:23:45;1.34;74.67
71304;DHT22;59091;47.446;19.148;2023-02-15T06:26:11;1.31;74.28
71304;DHT22;59091;47.446;19.148;2023-02-15T06:28:36;1.28;74.09
71304;DHT22;59091;47.446;19.148;2023-02-15T06:31:03;1.30;73.94
71304;DHT22;59091;47.446;19.148;2023-02-15T06:33:28;1.30;74.10
71304;DHT22;59091;47.446;19.148;2023-02-15T06:35:55;1.30;74.65
71304;DHT22;59091;47.446;19.148;2023-02-15T06:38:21;1.32;75.12
71304;DHT22;59091;47.446;19.148;2023-02-15T06:40:47;1.35;75.52
71304;DHT22;59091;47.446;19.148;2023-02-15T06:43:13;1.36;77.04
71304;DHT22;59091;47.446;19.148;2023-02-15T06:45:38;1.39;77.35
71304;DHT22;59091;47.446;19.148;2023-02-15T06:48:04;1.49;77.45
71304;DHT22;59091;47.446;19.148;2023-02-15T06:50:32;2.30;85.22
71304;DHT22;59091;47.446;19.148;2023-02-15T06:52:58;2.24;81.72
71304;DHT22;59091;47.446;19.148;2023-02-15T06:55:24;2.18;80.73
71304;DHT22;59091;47.446;19.148;2023-02-15T06:57:49;2.24;78.82
71304;DHT22;59091;47.446;19.148;2023-02-15T07:00:15;2.27;77.69
71304;DHT22;59091;47.446;19.148;2023-02-15T07:02:41;2.26;76.88
71304;DHT22;59091;47.446;19.148;2023-02-15T07:05:06;2.27;76.59
71304;DHT22;59091;47.446;19.148;2023-02-15T07:07:32;2.27;76.85
71304;DHT22;59091;47.446;19.148;2023-02-15T07:09:57;2.33;76.57
71304;DHT22;59091;47.446;19.148;2023-02-15T07:12:23;2.37;76.76
71304;DHT22;59091;47.446;19.148;2023-02-15T07:15:07;2.40;77.01
71304;DHT22;59091;47.446;19.148;2023-02-15T07:17:35;2.41;76.74
71304;DHT22;59091;47.446;19.148;2023-02-15T07:20:02;2.47;76.63
71304;DHT22;59091;47.446;19.148;2023-02-15T07:22:27;2.52;76.88
71304;DHT22;59091;47.446;19.148;2023-02-15T07:24:53;2.58;76.75
71304;DHT22;59091;47.446;19.148;2023-02-15T07:27:20;2.68;76.49
71304;DHT22;59091;47.446;19.148;2023-02-15T07:29:46;2.77;76.23
71304;DHT22;59091;47.446;19.148;2023-02-15T07:32:11;2.82;76.15
71304;DHT22;59091;47.446;19.148;2023-02-15T07:34:37;2.87;75.98
71304;DHT22;59091;47.446;19.148;2023-02-15T07:37:02;2.91;75.93
71304;DHT22;59091;47.446;19.148;2023-02-15T07:39:27;3.02;75.62
71304;DHT22;59091;47.446;19.148;2023-02-15T07:41:53;3.08;75.57
71304;DHT22;59091;47.446;19.148;2023-02-15T07:44:18;3.10;75.44
71304;DHT22;59091;47.446;19.148;2023-02-15T07:46:44;3.19;75.42
71304;DHT22;59091;47.446;19.148;2023-02-15T07:49:09;3.24;75.28
71304;DHT22;59091;47.446;19.148;2023-02-15T07:51:35;3.31;75.34
71304;DHT22;59091;47.446;19.148;2023-02-15T07:54:00;3.34;75.31
71304;DHT22;59091;47.446;19.148;2023-02-15T07:56:26;3.47;75.07
71304;DHT22;59091;47.446;19.148;2023-02-15T07:58:51;3.51;75.03
71304;DHT22;59091;47.446;19.148;2023-02-15T08:01:38;3.46;74.88
71304;DHT22;59091;47.446;19.148;2023-02-15T08:04:05;3.60;74.82
71304;DHT22;59091;47.446;19.148;2023-02-15T08:06:33;3.64;74.98
71304;DHT22;59091;47.446;19.148;2023-02-15T08:08:59;3.73;74.64
71304;DHT22;59091;47.446;19.148;2023-02-15T08:11:28;3.84;74.29
71304;DHT22;59091;47.446;19.148;2023-02-15T08:14:09;3.84;73.82
71304;DHT22;59091;47.446;19.148;2023-02-15T08:16:36;3.97;73.93
71304;DHT22;59091;47.446;19.148;2023-02-15T08:21:35;4.09;73.84
71304;DHT22;59091;47.446;19.148;2023-02-15T08:24:02;4.23;73.48
71304;DHT22;59091;47.446;19.148;2023-02-15T08:26:28;4.35;73.30
71304;DHT22;59091;47.446;19.148;2023-02-15T08:28:54;4.35;73.33
71304;DHT22;59091;47.446;19.148;2023-02-15T08:31:20;4.46;73.02
71304;DHT22;59091;47.446;19.148;2023-02-15T08:33:46;4.45;72.95
71304;DHT22;59091;47.446;19.148;2023-02-15T08:36:15;4.56;73.07
71304;DHT22;59091;47.446;19.148;2023-02-15T08:38:41;4.67;72.92
71304;DHT22;59091;47.446;19.148;2023-02-15T08:43:45;4.91;73.02
71304;DHT22;59091;47.446;19.148;2023-02-15T08:46:12;5.10;74.70
71304;DHT22;59091;47.446;19.148;2023-02-15T08:48:38;5.15;73.09
71304;DHT22;59091;47.446;19.148;2023-02-15T08:51:09;5.13;72.87
71304;DHT22;59091;47.446;19.148;2023-02-15T08:53:37;5.32;72.25
71304;DHT22;59091;47.446;19.148;2023-02-15T08:56:02;5.25;72.28
71304;DHT22;59091;47.446;19.148;2023-02-15T08:58:28;5.25;72.67
71304;DHT22;59091;47.446;19.148;2023-02-15T09:00:55;5.45;71.84
71304;DHT22;59091;47.446;19.148;2023-02-15T09:03:21;5.52;71.22
71304;DHT22;59091;47.446;19.148;2023-02-15T09:05:46;5.66;70.97
71304;DHT22;59091;47.446;19.148;2023-02-15T09:08:12;5.70;71.22
71304;DHT22;59091;47.446;19.148;2023-02-15T09:10:37;5.79;70.72
71304;DHT22;59091;47.446;19.148;2023-02-15T09:13:02;5.85;70.43
71304;DHT22;59091;47.446;19.148;2023-02-15T09:15:28;5.93;70.27
71304;DHT22;59091;47.446;19.148;2023-02-15T09:17:53;6.10;69.87
71304;DHT22;59091;47.446;19.148;2023-02-15T09:20:19;6.07;69.74
71304;DHT22;59091;47.446;19.148;2023-02-15T09:22:44;6.17;69.47
71304;DHT22;59091;47.446;19.148;2023-02-15T09:25:09;6.33;69.27
71304;DHT22;59091;47.446;19.148;2023-02-15T09:27:35;6.34;69.14
71304;DHT22;59091;47.446;19.148;2023-02-15T09:30:02;6.41;68.74
71304;DHT22;59091;47.446;19.148;2023-02-15T09:32:28;6.45;68.47
71304;DHT22;59091;47.446;19.148;2023-02-15T09:34:53;6.42;68.63
71304;DHT22;59091;47.446;19.148;2023-02-15T09:37:19;6.59;68.43
71304;DHT22;59091;47.446;19.148;2023-02-15T09:39:44;6.63;68.02
71304;DHT22;59091;47.446;19.148;2023-02-15T09:42:20;6.74;67.66
71304;DHT22;59091;47.446;19.148;2023-02-15T09:56:00;6.87;67.16
71304;DHT22;59091;47.446;19.148;2023-02-15T09:58:57;6.74;66.90
71304;DHT22;59091;47.446;19.148;2023-02-15T10:04:03;6.99;67.02
71304;DHT22;59091;47.446;19.148;2023-02-15T10:06:38;6.91;66.77
71304;DHT22;59091;47.446;19.148;2023-02-15T10:25:46;7.31;65.24
71304;DHT22;59091;47.446;19.148;2023-02-15T10:28:26;7.40;64.61
71304;DHT22;59091;47.446;19.148;2023-02-15T10:31:03;7.39;64.74
71304;DHT22;59091;47.446;19.148;2023-02-15T10:33:39;7.46;64.42
71304;DHT22;59091;47.446;19.148;2023-02-15T10:45:12;7.70;63.75
71304;DHT22;59091;47.446;19.148;2023-02-15T10:50:55;7.78;63.58
71304;DHT22;59091;47.446;19.148;2023-02-15T10:56:42;7.95;62.45
71304;DHT22;59091;47.446;19.148;2023-02-15T11:07:08;8.26;61.49
71304;DHT22;59091;47.446;19.148;2023-02-15T11:09:42;8.43;62.13
71304;DHT22;59091;47.446;19.148;2023-02-15T11:12:17;8.49;60.93
71304;DHT22;59091;47.446;19.148;2023-02-15T11:17:35;8.60;60.40
71304;DHT22;59091;47.446;19.148;2023-02-15T11:20:14;8.66;60.06
71304;DHT22;59091;47.446;19.148;2023-02-15T11:22:41;8.59;59.95
71304;DHT22;59091;47.446;19.148;2023-02-15T11:25:18;8.62;59.49
71304;DHT22;59091;47.446;19.148;2023-02-15T11:27:45;8.63;59.77
71304;DHT22;59091;47.446;19.148;2023-02-15T11:30:19;8.64;59.42
71304;DHT22;59091;47.446;19.148;2023-02-15T11:32:46;8.83;59.54
71304;DHT22;59091;47.446;19.148;2023-02-15T11:37:46;8.90;58.84
71304;DHT22;59091;47.446;19.148;2023-02-15T11:40:25;8.93;58.74
71304;DHT22;59091;47.446;19.148;2023-02-15T11:42:53;9.00;58.50
71304;DHT22;59091;47.446;19.148;2023-02-15T11:45:31;8.97;57.81
71304;DHT22;59091;47.446;19.148;2023-02-15T11:47:58;9.05;58.06
71304;DHT22;59091;47.446;19.148;2023-02-15T11:50:29;9.00;57.53
71304;DHT22;59091;47.446;19.148;2023-02-15T11:53:02;9.11;57.87
71304;DHT22;59091;47.446;19.148;2023-02-15T11:55:28;9.23;57.79
71304;DHT22;59091;47.446;19.148;2023-02-15T12:00:46;9.25;57.70
71304;DHT22;59091;47.446;19.148;2023-02-15T12:03:17;9.27;57.36
71304;DHT22;59091;47.446;19.148;2023-02-15T12:05:45;9.21;57.23
71304;DHT22;59091;47.446;19.148;2023-02-15T12:08:21;9.32;57.29
71304;DHT22;59091;47.446;19.148;2023-02-15T12:10:56;9.42;56.61
71304;DHT22;59091;47.446;19.148;2023-02-15T12:13:23;9.44;56.77
71304;DHT22;59091;47.446;19.148;2023-02-15T12:15:54;9.48;56.37
71304;DHT22;59091;47.446;19.148;2023-02-15T12:18:40;9.48;56.10
71304;DHT22;59091;47.446;19.148;2023-02-15T12:21:12;9.52;55.88
71304;DHT22;59091;47.446;19.148;2023-02-15T12:23:47;9.48;55.65
71304;DHT22;59091;47.446;19.148;2023-02-15T12:26:22;9.62;55.84
71304;DHT22;59091;47.446;19.148;2023-02-15T12:28:49;9.65;56.99
71304;DHT22;59091;47.446;19.148;2023-02-15T12:31:37;9.56;54.69
71304;DHT22;59091;47.446;19.148;2023-02-15T12:34:11;9.63;55.07
71304;DHT22;59091;47.446;19.148;2023-02-15T12:36:49;9.56;54.91
71304;DHT22;59091;47.446;19.148;2023-02-15T12:44:24;9.55;56.44
71304;DHT22;59091;47.446;19.148;2023-02-15T12:49:33;9.78;55.69
71304;DHT22;59091;47.446;19.148;2023-02-15T12:54:43;9.75;55.03
71304;DHT22;59091;47.446;19.148;2023-02-15T12:57:29;9.72;55.30
71304;DHT22;59091;47.446;19.148;2023-02-15T12:59:59;9.72;55.39
71304;DHT22;59091;47.446;19.148;2023-02-15T13:07:33;9.66;55.59
71304;DHT22;59091;47.446;19.148;2023-02-15T13:09:59;9.81;55.47
71304;DHT22;59091;47.446;19.148;2023-02-15T13:12:27;9.78;55.21
71304;DHT22;59091;47.446;19.148;2023-02-15T13:14:56;9.72;54.94
71304;DHT22;59091;47.446;19.148;2023-02-15T13:17:26;9.83;54.96
71304;DHT22;59091;47.446;19.148;2023-02-15T13:19:57;9.90;55.12
71304;DHT22;59091;47.446;19.148;2023-02-15T13:23:00;9.89;55.06
71304;DHT22;59091;47.446;19.148;2023-02-15T13:25:29;9.95;54.97
71304;DHT22;59091;47.446;19.148;2023-02-15T13:28:02;9.90;55.19
71304;DHT22;59091;47.446;19.148;2023-02-15T13:30:32;9.89;55.04
71304;DHT22;59091;47.446;19.148;2023-02-15T13:33:16;10.12;62.13
71304;DHT22;59091;47.446;19.148;2023-02-15T13:35:50;10.13;55.95
71304;DHT22;59091;47.446;19.148;2023-02-15T13:41:29;10.12;54.93
71304;DHT22;59091;47.446;19.148;2023-02-15T13:47:17;9.89;55.03
71304;DHT22;59091;47.446;19.148;2023-02-15T13:52:24;9.93;55.08
71304;DHT22;59091;47.446;19.148;2023-02-15T13:55:25;9.86;54.38
71304;DHT22;59091;47.446;19.148;2023-02-15T13:58:11;9.83;54.82
71304;DHT22;59091;47.446;19.148;2023-02-15T14:06:05;9.85;55.29
71304;DHT22;59091;47.446;19.148;2023-02-15T14:11:12;9.81;55.42
71304;DHT22;59091;47.446;19.148;2023-02-15T14:14:09;9.83;55.34
71304;DHT22;59091;47.446;19.148;2023-02-15T14:19:44;9.90;55.82
71304;DHT22;59091;47.446;19.148;2023-02-15T14:22:29;9.72;56.27
71304;DHT22;59091;47.446;19.148;2023-02-15T14:31:29;9.81;56.33
71304;DHT22;59091;47.446;19.148;2023-02-15T14:33:57;9.83;56.44
71304;DHT22;59091;47.446;19.148;2023-02-15T14:36:24;9.85;56.39
71304;DHT22;59091;47.446;19.148;2023-02-15T14:41:59;9.86;56.28
71304;DHT22;59091;47.446;19.148;2023-02-15T14:44:34;9.81;56.38
71304;DHT22;59091;47.446;19.148;2023-02-15T14:47:39;9.74;56.15
71304;DHT22;59091;47.446;19.148;2023-02-15T14:50:39;9.65;56.37
71304;DHT22;59091;47.446;19.148;2023-02-15T14:53:32;9.68;56.03
71304;DHT22;59091;47.446;19.148;2023-02-15T14:58:54;9.71;60.46
71304;DHT22;59091;47.446;19.148;2023-02-15T15:01:30;9.65;56.81
71304;DHT22;59091;47.446;19.148;2023-02-15T15:03:59;9.68;56.53
71304;DHT22;59091;47.446;19.148;2023-02-15T15:06:29;9.56;56.59
71304;DHT22;59091;47.446;19.148;2023-02-15T15:09:00;9.61;57.43
71304;DHT22;59091;47.446;19.148;2023-02-15T15:13:59;9.45;56.54
71304;DHT22;59091;47.446;19.148;2023-02-15T15:16:34;9.51;56.28
71304;DHT22;59091;47.446;19.148;2023-02-15T15:19:11;9.44;56.60
71304;DHT22;59091;47.446;19.148;2023-02-15T15:27:41;9.32;56.91
71304;DHT22;59091;47.446;19.148;2023-02-15T15:48:50;8.90;59.19
71304;DHT22;59091;47.446;19.148;2023-02-15T15:51:30;8.91;58.85
71304;DHT22;59091;47.446;19.148;2023-02-15T15:53:56;8.94;58.77
71304;DHT22;59091;47.446;19.148;2023-02-15T15:56:28;8.91;58.65
71304;DHT22;59091;47.446;19.148;2023-02-15T15:59:00;8.79;58.88
71304;DHT22;59091;47.446;19.148;2023-02-15T16:01:31;8.70;59.16
71304;DHT22;59091;47.446;19.148;2023-02-15T16:03:58;8.77;61.43
71304;DHT22;59091;47.446;19.148;2023-02-15T16:06:32;8.69;60.07
71304;DHT22;59091;47.446;19.148;2023-02-15T16:09:11;8.62;59.53
71304;DHT22;59091;47.446;19.148;2023-02-15T16:11:37;8.59;59.68
71304;DHT22;59091;47.446;19.148;2023-02-15T16:14:15;8.48;59.72
71304;DHT22;59091;47.446;19.148;2023-02-15T16:16:47;8.42;59.96
71304;DHT22;59091;47.446;19.148;2023-02-15T16:19:22;8.33;60.16
71304;DHT22;59091;47.446;19.148;2023-02-15T16:21:49;8.29;60.49
71304;DHT22;59091;47.446;19.148;2023-02-15T16:27:08;8.33;65.26
71304;DHT22;59091;47.446;19.148;2023-02-15T16:29:36;8.22;61.42
71304;DHT22;59091;47.446;19.148;2023-02-15T16:34:56;7.94;61.44
71304;DHT22;59091;47.446;19.148;2023-02-15T16:37:24;7.82;61.78
71304;DHT22;59091;47.446;19.148;2023-02-15T16:39:53;7.78;61.91
71304;DHT22;59091;47.446;19.148;2023-02-15T16:42:19;7.75;62.08
71304;DHT22;59091;47.446;19.148;2023-02-15T16:45:03;7.63;62.01
71304;DHT22;59091;47.446;19.148;2023-02-15T16:47:34;7.53;62.43
71304;DHT22;59091;47.446;19.148;2023-02-15T16:50:02;7.46;62.57
71304;DHT22;59091;47.446;19.148;2023-02-15T16:52:29;7.44;62.67
71304;DHT22;59091;47.446;19.148;2023-02-15T16:55:19;7.29;62.73
71304;DHT22;59091;47.446;19.148;2023-02-15T16:57:46;7.27;63.02
71304;DHT22;59091;47.446;19.148;2023-02-15T17:00:26;7.13;62.97
71304;DHT22;59091;47.446;19.148;2023-02-15T17:02:58;7.05;63.20
71304;DHT22;59091;47.446;19.148;2023-02-15T17:05:33;6.98;63.44
71304;DHT22;59091;47.446;19.148;2023-02-15T17:08:06;6.98;63.61
71304;DHT22;59091;47.446;19.148;2023-02-15T17:10:39;6.92;64.31
71304;DHT22;59091;47.446;19.148;2023-02-15T17:13:15;6.79;64.36
71304;DHT22;59091;47.446;19.148;2023-02-15T17:18:31;6.74;64.15
71304;DHT22;59091;47.446;19.148;2023-02-15T17:21:00;6.68;65.66
71304;DHT22;59091;47.446;19.148;2023-02-15T17:23:36;6.67;64.14
71304;DHT22;59091;47.446;19.148;2023-02-15T17:28:52;6.48;64.29
71304;DHT22;59091;47.446;19.148;2023-02-15T17:31:20;6.40;64.64
71304;DHT22;59091;47.446;19.148;2023-02-15T17:33:47;6.34;64.60
71304;DHT22;59091;47.446;19.148;2023-02-15T17:36:24;6.28;64.66
71304;DHT22;59091;47.446;19.148;2023-02-15T17:41:25;6.16;67.00
71304;DHT22;59091;47.446;19.148;2023-02-15T17:43:50;6.11;65.98
71304;DHT22;59091;47.446;19.148;2023-02-15T17:46:16;6.09;65.37
71304;DHT22;59091;47.446;19.148;2023-02-15T17:48:46;6.03;67.19
71304;DHT22;59091;47.446;19.148;2023-02-15T17:51:13;5.96;65.92
71304;DHT22;59091;47.446;19.148;2023-02-15T17:53:40;5.92;66.00
71304;DHT22;59091;47.446;19.148;2023-02-15T17:56:06;5.89;66.31
71304;DHT22;59091;47.446;19.148;2023-02-15T17:58:35;5.82;67.01
71304;DHT22;59091;47.446;19.148;2023-02-15T18:01:10;5.79;66.64
71304;DHT22;59091;47.446;19.148;2023-02-15T18:03:56;5.69;66.78
71304;DHT22;59091;47.446;19.148;2023-02-15T18:06:41;5.48;67.11
71304;DHT22;59091;47.446;19.148;2023-02-15T18:09:25;5.49;67.33
71304;DHT22;59091;47.446;19.148;2023-02-15T18:12:24;5.39;67.21
71304;DHT22;59091;47.446;19.148;2023-02-15T18:14:51;5.44;67.39
71304;DHT22;59091;47.446;19.148;2023-02-15T18:17:19;5.41;67.35
71304;DHT22;59091;47.446;19.148;2023-02-15T18:19:46;5.36;67.55
71304;DHT22;59091;47.446;19.148;2023-02-15T18:22:15;5.31;67.51
71304;DHT22;59091;47.446;19.148;2023-02-15T18:24:40;5.23;67.76
71304;DHT22;59091;47.446;19.148;2023-02-15T18:27:06;5.24;67.69
71304;DHT22;59091;47.446;19.148;2023-02-15T18:29:31;5.13;67.82
71304;DHT22;59091;47.446;19.148;2023-02-15T18:31:58;5.14;67.77
71304;DHT22;59091;47.446;19.148;2023-02-15T18:34:29;5.11;67.81
71304;DHT22;59091;47.446;19.148;2023-02-15T18:36:57;5.03;67.91
71304;DHT22;59091;47.446;19.148;2023-02-15T18:39:28;5.01;67.87
71304;DHT22;59091;47.446;19.148;2023-02-15T18:41:56;4.95;67.90
71304;DHT22;59091;47.446;19.148;2023-02-15T18:44:21;4.93;67.94
71304;DHT22;59091;47.446;19.148;2023-02-15T18:46:47;4.90;68.08
71304;DHT22;59091;47.446;19.148;2023-02-15T18:49:13;4.84;68.24
71304;DHT22;59091;47.446;19.148;2023-02-15T18:51:38;4.79;68.38
71304;DHT22;59091;47.446;19.148;2023-02-15T18:54:14;4.77;68.25
71304;DHT22;59091;47.446;19.148;2023-02-15T18:56:40;4.83;72.53